Time;durP1;ratioP1;P1;durP2;ratioP2;P2;SDS_P1;SDS_P2;PMS_P1;PMS_P2;Temp;Humidity;BMP_temperature;BMP_pressure;BME280_temperature;BME280_humidity;BME280_pressure;Samples;Min_cycle;Max_cycle;Signal;HPM_P1;HPM_P2
2021/09/19 00:00:07;;;;;;;3.42;3.10;;;;;;;12.81;99.76;99256.34;1704511;84;21769;-77
2021/09/19 00:02:34;;;;;;;4.55;3.00;;;;;;;12.82;99.45;99254.58;1714528;82;20996;-75
2021/09/19 00:05:02;;;;;;;9.93;3.72;;;;;;;12.82;98.79;99259.87;1715244;82;21046;-75
2021/09/19 00:07:28;;;;;;;3.55;2.27;;;;;;;12.83;99.38;99254.95;1704259;84;21059;-76
2021/09/19 00:09:55;;;;;;;7.20;2.27;;;;;;;12.83;99.16;99250.98;1704537;83;21563;-75
2021/09/19 00:12:23;;;;;;;2.90;2.10;;;;;;;12.83;99.34;99259.75;1704460;83;21210;-77
2021/09/19 00:14:51;;;;;;;2.00;1.80;;;;;;;12.83;99.53;99253.63;1704405;84;21011;-76
2021/09/19 00:17:18;;;;;;;2.12;1.87;;;;;;;12.84;100.00;99257.51;1704352;83;21070;-76
2021/09/19 00:19:45;;;;;;;6.45;2.02;;;;;;;12.84;100.00;99265.88;1704198;84;21575;-77
2021/09/19 00:22:12;;;;;;;4.75;2.15;;;;;;;12.83;100.00;99262.39;1704176;84;21046;-74
2021/09/19 00:24:39;;;;;;;6.62;2.92;;;;;;;12.84;100.00;99263.23;1715024;82;21521;-75
2021/09/19 00:27:07;;;;;;;7.33;3.37;;;;;;;12.84;100.00;99260.59;1733365;82;21613;-75
2021/09/19 00:29:34;;;;;;;6.62;2.95;;;;;;;12.83;99.93;99258.91;1733395;82;21050;-73
2021/09/19 00:32:02;;;;;;;4.55;3.30;;;;;;;12.84;100.00;99264.11;1733352;82;21129;-75
2021/09/19 00:34:28;;;;;;;3.85;3.17;;;;;;;12.86;100.00;99261.36;1744486;81;21041;-76
2021/09/19 00:36:56;;;;;;;4.15;2.85;;;;;;;12.86;100.00;99258.72;1747493;82;21149;-75
2021/09/19 00:39:23;;;;;;;3.90;2.80;;;;;;;12.86;100.00;99257.39;1747485;82;21018;-75
2021/09/19 00:41:49;;;;;;;3.37;2.52;;;;;;;12.86;100.00;99258.72;1747437;82;21011;-77
2021/09/19 00:44:16;;;;;;;6.28;2.62;;;;;;;12.84;100.00;99253.99;1747683;82;21049;-74
2021/09/19 00:46:44;;;;;;;3.83;2.80;;;;;;;12.79;100.00;99248.53;1747516;82;20994;-77
2021/09/19 00:49:10;;;;;;;4.53;2.67;;;;;;;12.73;100.00;99248.05;1747623;82;21584;-76
2021/09/19 00:51:38;;;;;;;8.05;3.33;;;;;;;12.68;100.00;99253.61;1747545;82;21084;-77
2021/09/19 00:54:04;;;;;;;4.50;2.58;;;;;;;12.64;100.00;99254.73;1712544;82;21306;-79
2021/09/19 00:56:33;;;;;;;3.35;2.70;;;;;;;12.60;100.00;99247.92;1747779;82;21398;-80
2021/09/19 00:59:01;;;;;;;6.15;2.65;;;;;;;12.58;100.00;99255.08;1747723;82;21488;-80
2021/09/19 01:01:28;;;;;;;4.35;3.10;;;;;;;12.57;100.00;99258.67;1747809;82;21510;-79
2021/09/19 01:03:55;;;;;;;4.35;2.30;;;;;;;12.57;100.00;99258.67;1747976;82;21038;-79
2021/09/19 01:06:24;;;;;;;4.05;3.20;;;;;;;12.56;100.00;99256.95;1731707;82;22284;-79
2021/09/19 01:08:51;;;;;;;3.67;3.12;;;;;;;12.57;100.00;99260.00;1718002;83;21010;-80
2021/09/19 01:11:20;;;;;;;2.70;2.02;;;;;;;12.56;100.00;99256.95;1718247;83;21021;-79
2021/09/19 01:13:49;;;;;;;4.67;2.62;;;;;;;12.57;100.00;99261.31;1718079;83;21057;-79
2021/09/19 01:16:17;;;;;;;4.42;2.77;;;;;;;12.62;100.00;99262.37;1717873;83;21052;-74
2021/09/19 01:18:47;;;;;;;3.45;2.90;;;;;;;12.65;100.00;99259.53;1718424;83;21081;-75
2021/09/19 01:21:16;;;;;;;4.37;1.87;;;;;;;12.67;100.00;99259.81;1717923;83;21032;-74
2021/09/19 01:23:58;;;;;;;4.92;3.40;;;;;;;12.71;100.00;99263.98;1717927;83;21631;-73
2021/09/19 01:26:27;;;;;;;4.47;2.50;;;;;;;12.73;100.00;99268.71;1718135;83;22018;-74
2021/09/19 01:28:55;;;;;;;4.17;2.95;;;;;;;12.75;100.00;99265.51;1718064;83;22034;-74
2021/09/19 01:31:22;;;;;;;3.58;2.60;;;;;;;12.75;100.00;99264.66;1717806;82;21040;-74
2021/09/19 01:33:50;;;;;;;3.52;2.30;;;;;;;12.76;100.00;99265.88;1717672;83;21041;-74
2021/09/19 01:36:16;;;;;;;5.25;2.40;;;;;;;12.74;100.00;99261.63;1717791;83;21639;-73
2021/09/19 01:38:44;;;;;;;4.58;3.00;;;;;;;12.75;100.00;99262.02;1717990;83;21561;-75
2021/09/19 01:41:21;;;;;;;2.87;2.12;;;;;;;12.74;100.00;99255.86;1716954;83;21592;-74
2021/09/19 01:43:51;;;;;;;4.45;2.87;;;;;;;12.73;100.00;99256.82;1718081;83;21084;-76
2021/09/19 01:46:15;;;;;;;3.75;2.50;;;;;;;12.72;100.00;99256.45;1717763;82;21071;-74
2021/09/19 01:48:42;;;;;;;6.30;3.12;;;;;;;12.71;100.00;99250.77;1718126;83;21054;-76
2021/09/19 01:51:09;;;;;;;3.35;2.60;;;;;;;12.68;100.00;99243.52;1717821;83;21488;-77
2021/09/19 01:53:38;;;;;;;5.30;3.10;;;;;;;12.65;100.00;99243.20;1718083;83;21090;-76
2021/09/19 01:56:07;;;;;;;6.70;2.80;;;;;;;12.62;100.00;99239.44;1717824;83;21074;-76
2021/09/19 01:58:42;;;;;;;4.72;3.05;;;;;;;12.60;100.00;99233.39;1717859;83;21078;-77
2021/09/19 02:01:10;;;;;;;7.70;3.62;;;;;;;12.59;100.00;99236.98;1717837;83;21031;-76
2021/09/19 02:03:39;;;;;;;7.22;3.90;;;;;;;12.58;100.00;99232.63;1725018;82;21546;-78
2021/09/19 02:06:06;;;;;;;5.85;3.20;;;;;;;12.57;100.00;99235.75;1747681;82;21081;-77
2021/09/19 02:08:37;;;;;;;8.33;3.40;;;;;;;12.54;100.00;99237.73;1747855;82;21061;-77
2021/09/19 02:11:08;;;;;;;7.60;3.35;;;;;;;12.51;100.00;99242.70;1747808;82;21021;-76
2021/09/19 02:13:36;;;;;;;7.15;2.90;;;;;;;12.48;100.00;99244.70;1747849;82;21069;-76
2021/09/19 02:16:03;;;;;;;4.65;2.37;;;;;;;12.46;100.00;99244.77;1747937;82;21529;-76
2021/09/19 02:18:32;;;;;;;3.98;2.02;;;;;;;12.42;100.00;99241.08;1747771;82;21585;-76
2021/09/19 02:20:58;;;;;;;2.30;2.10;;;;;;;12.41;100.00;99244.67;1747494;82;21050;-76
2021/09/19 02:23:25;;;;;;;3.42;2.60;;;;;;;12.38;100.00;99249.20;1747848;82;21054;-76
2021/09/19 02:25:52;;;;;;;9.95;4.70;;;;;;;12.37;100.00;99247.48;1722273;82;21118;-77
2021/09/19 02:28:21;;;;;;;5.58;3.85;;;;;;;12.34;100.00;99245.03;1718067;83;21098;-78
2021/09/19 02:30:49;;;;;;;6.92;5.05;;;;;;;12.31;100.00;99251.81;1742896;82;21104;-76
2021/09/19 02:33:18;;;;;;;7.58;5.45;;;;;;;12.30;100.00;99242.66;1747813;82;21037;-76
2021/09/19 02:35:44;;;;;;;7.42;4.83;;;;;;;12.30;100.00;99240.02;1747719;82;21021;-78
2021/09/19 02:38:12;;;;;;;5.37;3.70;;;;;;;12.29;100.00;99243.61;1748097;82;21050;-76
2021/09/19 02:40:40;;;;;;;6.53;4.10;;;;;;;12.30;100.00;99247.45;1747758;82;21051;-75
2021/09/19 02:43:08;;;;;;;6.33;4.47;;;;;;;12.29;100.00;99249.73;1747668;82;21601;-76
2021/09/19 02:45:35;;;;;;;9.68;4.08;;;;;;;12.24;100.00;99248.28;1747841;82;21076;-74
2021/09/19 02:48:03;;;;;;;6.03;4.30;;;;;;;12.22;100.00;99245.75;1747631;82;21081;-74
2021/09/19 02:50:29;;;;;;;8.33;4.22;;;;;;;12.23;100.00;99243.48;1747924;82;21088;-73
2021/09/19 02:52:56;;;;;;;9.50;3.85;;;;;;;12.23;100.00;99242.16;1747722;82;21139;-74
2021/09/19 02:55:22;;;;;;;5.78;3.90;;;;;;;12.23;100.00;99242.16;1747920;82;21029;-74
2021/09/19 02:57:49;;;;;;;6.33;3.25;;;;;;;12.23;100.00;99239.52;1747554;82;21054;-75
2021/09/19 03:00:18;;;;;;;7.53;2.95;;;;;;;12.23;100.00;99239.52;1745233;82;21132;-74
2021/09/19 03:02:47;;;;;;;3.83;3.15;;;;;;;12.25;100.00;99240.28;1717813;83;21045;-75
2021/09/19 03:05:13;;;;;;;7.22;3.77;;;;;;;12.27;100.00;99246.80;1718346;83;21126;-75
2021/09/19 03:07:40;;;;;;;5.70;4.15;;;;;;;12.27;100.00;99246.80;1718017;83;20986;-77
2021/09/19 03:10:07;;;;;;;7.70;3.40;;;;;;;12.26;100.00;99251.69;1717842;83;21048;-75
2021/09/19 03:12:35;;;;;;;4.17;3.37;;;;;;;12.26;100.00;99245.09;1717800;83;21085;-74
2021/09/19 03:15:04;;;;;;;3.52;2.47;;;;;;;12.25;100.00;99250.00;1717856;83;21722;-76
2021/09/19 03:17:31;;;;;;;6.85;4.90;;;;;;;12.24;100.00;99249.16;1717783;83;21120;-75
2021/09/19 03:19:58;;;;;;;7.55;4.42;;;;;;;12.23;100.00;99247.91;1717760;83;21012;-76
2021/09/19 03:22:30;;;;;;;8.38;4.58;;;;;;;12.22;100.00;99247.07;1717755;82;21026;-75
2021/09/19 03:24:58;;;;;;;6.70;4.00;;;;;;;12.22;100.00;99241.79;1717892;83;21096;-75
2021/09/19 03:27:24;;;;;;;5.65;3.80;;;;;;;12.23;100.00;99242.16;1717619;83;21089;-75
2021/09/19 03:29:52;;;;;;;4.70;3.33;;;;;;;12.23;100.00;99240.84;1717774;83;21077;-75
2021/09/19 03:32:18;;;;;;;4.70;3.45;;;;;;;12.25;100.00;99248.20;1717701;83;21791;-74
2021/09/19 03:34:46;;;;;;;4.72;3.30;;;;;;;12.23;100.00;99238.67;1711441;83;21061;-75
2021/09/19 03:37:14;;;;;;;4.58;3.58;;;;;;;12.22;100.00;99241.79;1704451;84;21085;-75
2021/09/19 03:39:45;;;;;;;6.85;3.37;;;;;;;12.22;100.00;99246.23;1704660;84;21557;-75
2021/09/19 03:42:13;;;;;;;3.87;3.02;;;;;;;12.22;100.00;99244.43;1704575;84;21081;-76
2021/09/19 03:44:41;;;;;;;5.08;2.60;;;;;;;12.19;100.00;99243.27;1704493;84;21082;-78
2021/09/19 03:47:08;;;;;;;2.37;1.80;;;;;;;12.21;100.00;99238.75;1704950;82;21018;-76
2021/09/19 03:49:35;;;;;;;7.17;2.30;;;;;;;12.21;100.00;99235.27;1708384;82;21085;-74
2021/09/19 03:52:03;;;;;;;6.78;2.75;;;;;;;12.23;100.00;99247.91;1709628;82;21045;-74
2021/09/19 03:54:31;;;;;;;4.65;2.83;;;;;;;12.23;100.00;99247.44;1722928;82;21218;-73
2021/09/19 03:56:58;;;;;;;5.10;3.02;;;;;;;12.22;100.00;99241.79;1718218;82;21058;-72
2021/09/19 03:59:29;;;;;;;5.00;2.50;;;;;;;12.20;100.00;99245.46;1707670;82;21648;-73
2021/09/19 04:01:57;;;;;;;7.47;2.62;;;;;;;12.15;100.00;99251.01;1719586;82;21062;-74
2021/09/19 04:04:24;;;;;;;4.75;2.52;;;;;;;12.15;100.00;99254.97;1704499;84;21100;-74
2021/09/19 04:06:52;;;;;;;8.18;3.33;;;;;;;12.15;100.00;99254.97;1721777;82;21926;-74
2021/09/19 04:09:21;;;;;;;3.27;2.35;;;;;;;12.15;100.00;99258.92;1722568;82;21066;-71
2021/09/19 04:11:47;;;;;;;3.87;2.90;;;;;;;12.15;100.00;99256.28;1709335;82;21524;-76
2021/09/19 04:26:48;;;;;;;5.12;3.10;;;;;;;12.58;100.00;99263.88;1813878;78;22753;-74
2021/09/19 04:29:16;;;;;;;3.83;2.85;;;;;;;12.52;100.00;99260.75;1833562;77;21020;-75
2021/09/19 04:31:43;;;;;;;3.80;3.10;;;;;;;12.42;100.00;99261.73;1836850;76;21788;-74
2021/09/19 04:34:10;;;;;;;3.85;2.92;;;;;;;12.34;100.00;99264.83;1824506;77;21084;-77
2021/09/19 04:36:38;;;;;;;4.83;3.08;;;;;;;12.27;100.00;99262.17;1844372;77;21053;-77
2021/09/19 04:39:05;;;;;;;6.55;3.17;;;;;;;12.22;100.00;99260.27;1838641;77;21029;-75
2021/09/19 04:41:31;;;;;;;3.72;3.10;;;;;;;12.16;100.00;99263.25;1837408;77;21024;-79
2021/09/19 04:43:59;;;;;;;3.33;2.72;;;;;;;12.09;100.00;99263.22;1840587;77;21082;-76
2021/09/19 04:46:25;;;;;;;3.87;2.90;;;;;;;12.00;100.00;99263.75;1834299;78;21011;-77
2021/09/19 04:48:56;;;;;;;6.15;3.10;;;;;;;11.96;100.00;99263.93;1806059;78;21465;-77
2021/09/19 04:51:22;;;;;;;5.03;3.62;;;;;;;11.95;100.00;99262.21;1830688;78;21099;-77
2021/09/19 04:53:50;;;;;;;6.60;3.10;;;;;;;11.95;100.00;99253.45;1835239;78;21126;-75
2021/09/19 04:56:16;;;;;;;4.37;3.12;;;;;;;11.93;100.00;99250.89;1834708;78;21646;-74
2021/09/19 04:58:44;;;;;;;10.28;3.05;;;;;;;11.92;100.00;99253.64;1834877;78;21060;-73
2021/09/19 05:01:11;;;;;;;7.05;3.40;;;;;;;11.94;100.00;99242.05;1834436;78;21589;-74
2021/09/19 05:03:38;;;;;;;4.03;2.40;;;;;;;11.95;100.00;99238.47;1830753;78;21699;-70
2021/09/19 05:06:04;;;;;;;5.67;3.55;;;;;;;11.96;100.00;99242.83;1842103;77;21353;-69
2021/09/19 05:08:32;;;;;;;4.78;2.25;;;;;;;12.01;100.00;99243.00;1839934;77;21543;-71
2021/09/19 05:10:58;;;;;;;9.03;3.33;;;;;;;12.03;100.00;99242.45;1835241;77;21001;-68
2021/09/19 05:13:25;;;;;;;5.97;3.60;;;;;;;12.09;100.00;99257.95;1824502;78;21096;-70
2021/09/19 05:15:51;;;;;;;8.13;4.62;;;;;;;12.14;100.00;99258.53;1836134;78;21055;-71
2021/09/19 05:18:19;;;;;;;8.50;4.87;;;;;;;12.18;100.00;99253.45;1835437;78;21052;-70
2021/09/19 05:20:46;;;;;;;8.28;5.58;;;;;;;12.20;100.00;99256.02;1835894;78;22021;-70
2021/09/19 05:23:12;;;;;;;11.63;5.37;;;;;;;12.27;100.00;99255.56;1835756;78;21036;-70
2021/09/19 05:25:40;;;;;;;8.00;4.92;;;;;;;12.33;100.00;99252.58;1814189;78;21551;-71
2021/09/19 05:28:07;;;;;;;6.87;5.12;;;;;;;12.38;100.00;99246.55;1819807;78;21075;-70
2021/09/19 05:30:34;;;;;;;7.53;4.72;;;;;;;12.40;100.00;99253.08;1817469;78;21610;-71
2021/09/19 05:33:01;;;;;;;6.28;4.78;;;;;;;12.44;100.00;99251.09;1786896;79;22213;-71
2021/09/19 05:35:27;;;;;;;12.30;4.75;;;;;;;12.47;100.00;99254.86;1845522;77;21075;-72
2021/09/19 05:37:53;;;;;;;8.80;4.50;;;;;;;12.49;100.00;99252.98;1841365;77;21067;-71
2021/09/19 05:40:20;;;;;;;6.22;3.67;;;;;;;12.50;100.00;99252.91;1818782;78;20997;-71
2021/09/19 05:42:48;;;;;;;7.78;3.72;;;;;;;12.48;100.00;99256.58;1788302;79;21000;-71
2021/09/19 05:45:15;;;;;;;5.85;4.17;;;;;;;12.47;100.00;99257.50;1845473;76;21028;-72
2021/09/19 05:47:43;;;;;;;5.45;4.58;;;;;;;12.46;100.00;99253.17;1847298;77;21013;-71
2021/09/19 05:50:10;;;;;;;5.05;3.92;;;;;;;12.38;100.00;99250.52;1846715;77;21018;-70
2021/09/19 05:52:38;;;;;;;5.62;4.62;;;;;;;12.34;100.00;99252.10;1844038;77;21761;-71
2021/09/19 05:55:07;;;;;;;5.35;4.78;;;;;;;12.32;100.00;99249.55;1843069;77;21096;-70
2021/09/19 05:57:36;;;;;;;7.53;5.50;;;;;;;12.27;100.00;99238.41;1846209;77;21033;-70
2021/09/19 06:00:06;;;;;;;5.70;5.10;;;;;;;12.35;100.00;99251.15;1845011;77;21072;-70
2021/09/19 06:02:32;;;;;;;7.37;5.40;;;;;;;12.32;100.00;99245.58;1841693;77;21354;-70
2021/09/19 06:05:00;;;;;;;6.92;5.78;;;;;;;12.31;100.00;99244.38;1845921;77;21013;-70
2021/09/19 06:07:26;;;;;;;7.58;6.35;;;;;;;12.25;100.00;99244.24;1862768;76;20998;-70
2021/09/19 06:09:52;;;;;;;11.10;7.03;;;;;;;12.29;100.00;99248.41;1862998;77;21514;-70
2021/09/19 06:12:19;;;;;;;8.58;6.58;;;;;;;12.29;100.00;99248.89;1863136;77;21005;-70
2021/09/19 06:14:49;;;;;;;10.05;6.83;;;;;;;12.25;100.00;99246.88;1857175;76;21586;-71
2021/09/19 06:17:18;;;;;;;7.50;5.55;;;;;;;12.25;100.00;99250.84;1850597;77;21083;-70
2021/09/19 06:19:45;;;;;;;7.12;4.08;;;;;;;12.27;100.00;99256.89;1843850;77;21613;-70
2021/09/19 06:22:12;;;;;;;6.78;4.20;;;;;;;12.30;100.00;99252.73;1844944;77;21143;-71
2021/09/19 06:24:38;;;;;;;4.22;3.62;;;;;;;12.35;100.00;99248.06;1841878;77;21025;-70
2021/09/19 06:27:12;;;;;;;4.03;2.60;;;;;;;12.45;100.00;99243.56;1837699;77;21071;-72
2021/09/19 06:29:35;;;;;;;8.45;3.40;;;;;;;12.53;100.00;99245.27;1828266;77;21060;-70
2021/09/19 06:32:02;;;;;;;5.15;3.10;;;;;;;12.59;100.00;99248.88;1786345;78;21059;-71
2021/09/19 06:34:30;;;;;;;7.58;3.77;;;;;;;12.62;100.00;99253.97;1832038;77;20978;-70
2021/09/19 06:36:57;;;;;;;9.13;3.67;;;;;;;12.63;100.00;99250.40;1833529;77;21022;-71
2021/09/19 06:39:23;;;;;;;7.12;3.42;;;;;;;12.64;100.00;99255.20;1827965;77;21025;-70
2021/09/19 06:41:51;;;;;;;4.22;3.10;;;;;;;12.62;100.00;99255.28;1832331;77;21554;-71
2021/09/19 06:44:18;;;;;;;5.75;3.90;;;;;;;12.64;100.00;99248.13;1837879;77;21009;-70
2021/09/19 06:46:45;;;;;;;6.47;4.00;;;;;;;12.62;100.00;99247.36;1828128;77;22229;-71
2021/09/19 06:49:12;;;;;;;3.65;2.95;;;;;;;12.64;100.00;99246.80;1827837;77;21005;-69
2021/09/19 06:51:39;;;;;;;5.05;2.52;;;;;;;12.56;100.00;99246.39;1829325;77;21135;-72
2021/09/19 06:54:05;;;;;;;4.70;3.17;;;;;;;12.49;100.00;99238.02;1829038;78;21032;-71
2021/09/19 06:56:32;;;;;;;6.17;3.02;;;;;;;12.50;100.00;99242.34;1829131;78;21053;-72
2021/09/19 06:58:59;;;;;;;4.08;2.10;;;;;;;12.51;100.00;99241.38;1828916;77;21970;-70
2021/09/19 07:01:25;;;;;;;5.87;2.33;;;;;;;12.50;100.00;99240.17;1829025;78;21032;-71
2021/09/19 07:03:53;;;;;;;7.53;2.70;;;;;;;12.47;100.00;99242.53;1829035;77;21553;-71
2021/09/19 07:06:19;;;;;;;2.65;2.30;;;;;;;12.45;100.00;99248.84;1827733;77;21026;-71
2021/09/19 07:08:48;;;;;;;4.42;2.17;;;;;;;12.47;100.00;99244.30;1828049;77;21025;-72
2021/09/19 07:11:16;;;;;;;2.85;2.25;;;;;;;12.52;100.00;99247.54;1832493;77;21036;-72
2021/09/19 07:13:44;;;;;;;2.85;2.25;;;;;;;12.54;100.00;99241.22;1827749;77;21595;-72
2021/09/19 07:16:12;;;;;;;4.58;2.05;;;;;;;12.58;100.00;99237.47;1827702;77;21001;-71
2021/09/19 07:18:41;;;;;;;3.12;1.95;;;;;;;12.63;100.00;99237.19;1832970;77;21112;-72
2021/09/19 07:21:09;;;;;;;3.08;2.47;;;;;;;12.68;100.00;99237.76;1837031;77;21060;-72
2021/09/19 07:23:36;;;;;;;3.90;2.17;;;;;;;12.78;100.00;99238.89;1831827;77;21056;-72
2021/09/19 07:26:03;;;;;;;2.85;2.37;;;;;;;12.94;100.00;99235.33;1838062;77;21289;-73
2021/09/19 07:28:30;;;;;;;4.47;2.30;;;;;;;13.11;100.00;99232.52;1831858;77;21028;-72
2021/09/19 07:30:57;;;;;;;2.60;2.17;;;;;;;13.30;100.00;99234.05;1836892;77;21016;-71
2021/09/19 07:33:24;;;;;;;3.08;2.00;;;;;;;13.46;100.00;99240.52;1830663;77;21001;-72
2021/09/19 07:35:51;;;;;;;5.53;3.10;;;;;;;13.56;100.00;99236.36;1827732;77;21482;-72
2021/09/19 07:38:18;;;;;;;3.50;2.50;;;;;;;13.63;100.00;99234.55;1831257;77;21590;-71
2021/09/19 07:40:46;;;;;;;5.28;2.98;;;;;;;13.70;100.00;99229.71;1828716;77;21036;-71
2021/09/19 07:43:15;;;;;;;4.03;2.70;;;;;;;13.74;100.00;99227.73;1833164;77;21586;-72
2021/09/19 07:45:42;;;;;;;5.50;2.80;;;;;;;13.76;99.85;99229.33;1832685;77;21492;-71
2021/09/19 07:48:11;;;;;;;4.33;2.65;;;;;;;13.84;100.00;99234.11;1828078;77;21267;-71
2021/09/19 07:50:38;;;;;;;3.58;2.65;;;;;;;13.89;99.81;99237.30;1832726;77;21365;-72
2021/09/19 07:53:05;;;;;;;4.22;2.80;;;;;;;13.97;99.90;99236.83;1828152;77;21564;-71
2021/09/19 07:55:32;;;;;;;4.60;2.85;;;;;;;14.00;99.65;99236.13;1836691;77;21037;-72
2021/09/19 07:57:59;;;;;;;4.87;3.00;;;;;;;13.99;99.45;99233.13;1832099;77;21036;-71
2021/09/19 08:00:26;;;;;;;3.52;2.72;;;;;;;14.02;98.89;99227.62;1838557;77;21106;-71
2021/09/19 08:02:56;;;;;;;3.80;2.45;;;;;;;14.09;99.53;99229.88;1852182;77;21075;-71
2021/09/19 08:05:23;;;;;;;2.93;2.60;;;;;;;14.12;98.58;99224.37;1829842;77;21068;-71
2021/09/19 08:07:51;;;;;;;3.80;2.60;;;;;;;14.13;98.30;99224.76;1850705;77;21005;-70
2021/09/19 08:10:18;;;;;;;7.00;2.85;;;;;;;14.13;98.07;99224.76;1836280;77;21034;-74
2021/09/19 08:12:49;;;;;;;3.10;2.40;;;;;;;14.25;99.39;99214.67;1840059;77;20987;-73
2021/09/19 08:15:17;;;;;;;3.85;2.95;;;;;;;14.41;99.43;99220.62;1851617;77;21084;-73
2021/09/19 08:17:44;;;;;;;4.80;3.33;;;;;;;14.63;99.36;99217.87;1842154;77;21029;-72
2021/09/19 08:20:12;;;;;;;6.90;5.08;;;;;;;14.86;97.79;99229.09;1844165;76;21036;-73
2021/09/19 08:22:40;;;;;;;12.28;6.58;;;;;;;14.89;95.37;99222.72;1836579;77;21064;-73
2021/09/19 08:25:10;;;;;;;10.85;8.20;;;;;;;14.88;94.67;99229.83;1829907;77;21117;-73
2021/09/19 08:27:37;;;;;;;12.28;9.15;;;;;;;14.88;93.52;99223.20;1838368;77;20988;-75
2021/09/19 08:30:09;;;;;;;12.82;10.88;;;;;;;14.83;93.59;99226.63;1832437;77;21019;-70
2021/09/19 08:32:35;;;;;;;13.07;10.20;;;;;;;14.84;93.87;99218.22;1848464;77;22209;-71
2021/09/19 08:35:03;;;;;;;12.93;10.88;;;;;;;14.92;94.04;99216.36;1845525;77;21351;-73
2021/09/19 08:37:29;;;;;;;16.05;11.43;;;;;;;15.01;94.17;99213.06;1844175;77;21125;-72
2021/09/19 08:39:56;;;;;;;17.57;10.88;;;;;;;15.15;94.12;99210.28;1844075;76;21013;-71
2021/09/19 08:42:24;;;;;;;14.53;10.88;;;;;;;15.29;93.21;99220.76;1851448;77;20997;-73
2021/09/19 08:44:53;;;;;;;11.33;9.48;;;;;;;15.40;93.16;99212.53;1857528;76;20989;-73
2021/09/19 08:47:20;;;;;;;12.00;10.00;;;;;;;15.52;93.95;99207.66;1844258;77;21052;-75
2021/09/19 08:49:47;;;;;;;12.82;10.63;;;;;;;15.57;93.67;99204.67;1845542;77;21139;-73
2021/09/19 08:52:13;;;;;;;11.45;9.70;;;;;;;15.54;93.07;99208.40;1846962;76;21405;-72
2021/09/19 08:54:39;;;;;;;13.80;10.13;;;;;;;15.43;91.98;99206.51;1838792;77;21025;-73
2021/09/19 08:57:06;;;;;;;12.85;10.35;;;;;;;15.31;93.22;99208.23;1840621;77;21006;-73
2021/09/19 08:59:49;;;;;;;12.35;10.65;;;;;;;15.21;93.55;99206.38;1846916;77;21076;-72
2021/09/19 09:02:16;;;;;;;13.38;10.65;;;;;;;15.11;94.20;99200.84;1846603;77;22567;-73
2021/09/19 09:04:44;;;;;;;13.70;10.13;;;;;;;15.07;94.13;99215.30;1851997;77;20989;-73
2021/09/19 09:07:13;;;;;;;12.68;10.85;;;;;;;15.03;93.39;99209.83;1848032;76;21052;-74
2021/09/19 09:09:55;;;;;;;12.58;10.80;;;;;;;15.05;93.96;99203.95;1842473;77;21667;-73
2021/09/19 09:12:24;;;;;;;12.68;11.12;;;;;;;15.07;93.02;99199.39;1845709;76;20997;-73
2021/09/19 09:14:54;;;;;;;15.35;11.68;;;;;;;15.17;93.35;99204.40;1840908;77;21076;-74
2021/09/19 09:17:25;;;;;;;18.50;11.68;;;;;;;15.19;93.26;99195.86;1845699;76;21571;-73
2021/09/19 09:19:55;;;;;;;15.72;11.45;;;;;;;15.28;92.99;99203.16;1838110;76;21072;-72
2021/09/19 09:22:29;;;;;;;17.25;11.78;;;;;;;15.32;92.48;99202.45;1847354;76;20978;-73
2021/09/19 09:25:15;;;;;;;12.53;10.78;;;;;;;15.28;91.95;99197.86;1833824;76;21033;-73
2021/09/19 09:27:45;;;;;;;13.40;11.80;;;;;;;15.30;93.43;99193.29;1834383;77;21135;-74
2021/09/19 09:30:22;;;;;;;13.78;11.43;;;;;;;15.43;94.11;99193.73;1813628;77;21090;-73
2021/09/19 09:33:04;;;;;;;11.18;10.05;;;;;;;15.60;91.99;99188.06;1814139;78;21027;-73
2021/09/19 09:35:40;;;;;;;12.23;10.53;;;;;;;15.80;91.78;99187.09;1814545;78;21055;-73
2021/09/19 09:38:22;;;;;;;13.32;11.08;;;;;;;15.98;90.96;99185.73;1814624;79;21031;-73
2021/09/19 09:40:49;;;;;;;17.30;10.25;;;;;;;16.06;88.65;99184.70;1794326;80;21782;-73
2021/09/19 09:43:18;;;;;;;11.15;9.05;;;;;;;16.09;88.21;99185.79;1793086;80;21144;-73
2021/09/19 09:45:49;;;;;;;10.80;9.40;;;;;;;16.17;89.48;99187.02;1795154;80;20957;-73
2021/09/19 09:48:30;;;;;;;11.40;9.20;;;;;;;16.24;88.53;99182.94;1794632;80;21695;-75
2021/09/19 09:51:00;;;;;;;12.93;9.75;;;;;;;16.32;88.94;99180.56;1769790;80;21611;-72
2021/09/19 09:53:27;;;;;;;10.85;9.23;;;;;;;16.38;86.89;99176.12;1819320;77;21089;-74
2021/09/19 09:55:56;;;;;;;13.32;9.65;;;;;;;16.42;87.08;99174.89;1820848;77;21413;-72
2021/09/19 09:58:23;;;;;;;14.07;9.63;;;;;;;16.57;87.43;99168.41;1827148;77;21080;-72
2021/09/19 10:00:51;;;;;;;11.57;8.58;;;;;;;16.78;86.38;99161.06;1797228;78;21012;-72
2021/09/19 10:03:18;;;;;;;10.20;8.45;;;;;;;17.22;83.81;99158.55;1805590;78;20993;-81
2021/09/19 10:05:45;;;;;;;10.85;8.58;;;;;;;17.56;83.37;99154.02;1800199;78;21132;-79
2021/09/19 10:08:12;;;;;;;10.88;7.97;;;;;;;18.08;81.91;99160.38;1843317;77;21256;-81
2021/09/19 10:10:43;;;;;;;9.83;7.85;;;;;;;18.39;77.97;99155.15;1844642;76;20995;-80
2021/09/19 10:13:13;;;;;;;;;;;;;;;18.66;76.28;99155.95;1837103;76;21036;-80
2021/09/19 10:15:42;;;;;;;7.62;6.47;;;;;;;18.87;74.53;99151.94;1826915;77;20207;-81
2021/09/19 10:18:10;;;;;;;7.45;6.65;;;;;;;19.16;73.33;99151.20;1824371;77;21099;-80
2021/09/19 10:20:45;;;;;;;8.85;6.65;;;;;;;19.36;73.87;99142.77;1814573;78;21049;-80
2021/09/19 10:23:27;;;;;;;6.78;6.08;;;;;;;19.56;72.67;99130.30;1814952;79;21081;-79
2021/09/19 10:26:01;;;;;;;8.25;5.60;;;;;;;19.84;72.36;99130.84;1823505;77;21633;-80
2021/09/19 10:28:38;;;;;;;6.28;5.15;;;;;;;20.40;67.78;99137.75;1842772;77;21515;-78
2021/09/19 10:31:19;;;;;;;6.20;4.25;;;;;;;20.70;68.27;99140.73;1843946;77;21520;-80
2021/09/19 10:34:05;;;;;;;5.20;4.45;;;;;;;20.56;65.60;99142.04;1830475;77;21013;-80
2021/09/19 10:36:45;;;;;;;6.65;4.05;;;;;;;20.32;67.08;99148.67;1828732;77;21576;-80
2021/09/19 10:39:45;;;;;;;5.15;4.55;;;;;;;19.96;66.47;99142.23;1828444;77;21575;-80
2021/09/19 10:42:28;;;;;;;4.65;4.17;;;;;;;19.58;67.92;99134.98;1829617;77;21034;-82
2021/09/19 10:44:58;;;;;;;5.85;4.55;;;;;;;19.22;69.50;99127.98;1845176;77;21135;-80
2021/09/19 10:47:51;;;;;;;6.83;4.35;;;;;;;19.04;70.54;99131.78;1850340;77;21008;-81
2021/09/19 10:50:36;;;;;;;4.75;3.83;;;;;;;18.95;71.52;99133.42;1850359;77;21512;-80
2021/09/19 10:53:14;;;;;;;5.22;4.70;;;;;;;18.76;71.24;99123.98;1838792;77;21369;-81
2021/09/19 10:56:00;;;;;;;7.92;4.87;;;;;;;18.55;72.28;99120.87;1862199;77;21009;-80
2021/09/19 10:58:40;;;;;;;5.30;4.40;;;;;;;18.30;73.46;99118.62;1828321;77;21531;-80
2021/09/19 11:01:15;;;;;;;;;;;;;;;18.16;74.34;99118.45;1855905;77;21476;-80
2021/09/19 11:03:48;;;;;;;5.22;4.00;;;;;;;18.00;74.33;99116.23;1858471;77;20315;-81
2021/09/19 11:06:25;;;;;;;4.45;3.50;;;;;;;17.86;74.94;99104.56;1830053;77;21089;-82
2021/09/19 11:08:51;;;;;;;4.17;3.58;;;;;;;17.87;75.21;99103.58;1835072;77;21009;-82
2021/09/19 11:11:22;;;;;;;7.62;4.80;;;;;;;17.81;75.57;99104.45;1832599;77;21061;-83
2021/09/19 11:13:56;;;;;;;10.20;5.20;;;;;;;17.68;76.12;99105.57;1832341;76;21005;-82
2021/09/19 11:16:34;;;;;;;7.55;4.80;;;;;;;17.52;78.39;99117.97;1850159;77;21029;-82
2021/09/19 11:19:06;;;;;;;9.28;5.80;;;;;;;17.29;79.62;99123.34;1828205;77;20997;-82
2021/09/19 11:21:40;;;;;;;11.12;5.70;;;;;;;17.16;81.80;99127.95;1842323;77;21071;-83
2021/09/19 11:24:12;;;;;;;7.05;5.05;;;;;;;17.24;83.04;99129.52;1833210;77;21044;-83
2021/09/19 11:26:47;;;;;;;7.72;5.25;;;;;;;17.44;82.24;99131.04;1852926;76;21566;-81
2021/09/19 11:29:24;;;;;;;8.20;5.65;;;;;;;17.46;79.62;99137.09;1828149;77;21494;-82
2021/09/19 11:31:54;;;;;;;7.15;5.30;;;;;;;17.45;79.28;99138.91;1828304;78;21073;-82
2021/09/19 11:34:23;;;;;;;5.78;5.10;;;;;;;17.50;78.95;99135.88;1835297;77;20958;-83
2021/09/19 11:36:55;;;;;;;6.75;5.05;;;;;;;17.48;77.87;99132.48;1833851;77;22093;-83
2021/09/19 11:39:22;;;;;;;5.05;4.30;;;;;;;17.42;77.57;99133.01;1834240;77;21063;-83
2021/09/19 11:41:49;;;;;;;4.20;3.80;;;;;;;17.34;76.66;99130.95;1849230;76;21021;-83
2021/09/19 11:44:18;;;;;;;4.53;3.67;;;;;;;17.24;76.31;99130.85;1847037;76;21017;-83
2021/09/19 11:46:51;;;;;;;4.22;3.83;;;;;;;17.19;77.87;99138.36;1843475;76;21048;-83